KILN

Wilmington Airpark

Wilmington, Ohio, USA
METAR KILN 230254Z AUTO 35010KT 10SM CLR 22/17 A3001 RMK AO2 LTG DSNT SE SLP153 T02220167 52016
Observed Flight Rules
May-23 @ 02:54 UTC (32 minutes ago) Visual Flight Rules
Wind Visibility Clouds
350° at 10 knots 10 miles
  • Clear skies
Temperatures Readings
Current 22°C / 72°F
Dewpoint 17°C / 63°F
Humidity 73%
Altimeter 30.01" Hg
Pressure 1015.3 hPa
Elevation 322
METAR KILN 230254Z AUTO 35010KT 10SM CLR 22/17 A3001 RMK AO2 LTG DSNT SE SLP153 T02220167 52016
Observed Flight Rules
May-23 @ 02:54 UTC
(32 minutes ago)
VFR
Wind Visibility
350° at 10 knots 10 miles
Clouds
  • Clear skies
Temperature Dewpoint
22°C / 72°F 17°C / 63°F
Humidity Altimeter Pressure
73% 30.01" Hg 1015.3 hPa